sensor_id;sensor_type;location;lat;lon;timestamp;P1;durP1;ratioP1;P2;durP2;ratioP2
3423;SDS011;72707;50.120;8.500;2024-01-07T00:01:32;6.93;;;2.53;;
3423;SDS011;72707;50.120;8.500;2024-01-07T00:03:58;4.13;;;2.27;;
3423;SDS011;72707;50.120;8.500;2024-01-07T00:06:24;4.67;;;2.53;;
3423;SDS011;72707;50.120;8.500;2024-01-07T00:08:50;4.03;;;2.40;;
3423;SDS011;72707;50.120;8.500;2024-01-07T00:11:15;4.73;;;2.07;;
3423;SDS011;72707;50.120;8.500;2024-01-07T00:13:41;2.43;;;1.80;;
3423;SDS011;72707;50.120;8.500;2024-01-07T00:16:06;5.30;;;2.30;;
3423;SDS011;72707;50.120;8.500;2024-01-07T00:18:32;3.43;;;1.93;;
3423;SDS011;72707;50.120;8.500;2024-01-07T00:20:57;4.50;;;2.20;;
3423;SDS011;72707;50.120;8.500;2024-01-07T00:23:23;4.63;;;2.20;;
3423;SDS011;72707;50.120;8.500;2024-01-07T00:25:49;5.93;;;2.37;;
3423;SDS011;72707;50.120;8.500;2024-01-07T00:28:15;5.50;;;2.07;;
3423;SDS011;72707;50.120;8.500;2024-01-07T00:30:41;5.50;;;2.10;;
3423;SDS011;72707;50.120;8.500;2024-01-07T00:33:07;6.50;;;2.20;;
3423;SDS011;72707;50.120;8.500;2024-01-07T00:35:32;4.07;;;2.03;;
3423;SDS011;72707;50.120;8.500;2024-01-07T00:37:58;7.60;;;3.23;;
3423;SDS011;72707;50.120;8.500;2024-01-07T00:40:24;5.10;;;2.17;;
3423;SDS011;72707;50.120;8.500;2024-01-07T00:42:50;8.60;;;2.93;;
3423;SDS011;72707;50.120;8.500;2024-01-07T00:45:16;4.77;;;2.33;;
3423;SDS011;72707;50.120;8.500;2024-01-07T00:47:42;3.30;;;1.90;;
3423;SDS011;72707;50.120;8.500;2024-01-07T00:50:08;4.67;;;2.40;;
3423;SDS011;72707;50.120;8.500;2024-01-07T00:52:34;4.40;;;2.80;;
3423;SDS011;72707;50.120;8.500;2024-01-07T00:55:02;6.17;;;2.67;;
3423;SDS011;72707;50.120;8.500;2024-01-07T00:57:31;6.67;;;2.60;;
3423;SDS011;72707;50.120;8.500;2024-01-07T00:59:57;6.70;;;2.67;;
3423;SDS011;72707;50.120;8.500;2024-01-07T01:02:23;7.47;;;2.80;;
3423;SDS011;72707;50.120;8.500;2024-01-07T01:04:49;6.10;;;2.20;;
3423;SDS011;72707;50.120;8.500;2024-01-07T01:07:14;6.20;;;2.60;;
3423;SDS011;72707;50.120;8.500;2024-01-07T01:09:40;7.10;;;2.93;;
3423;SDS011;72707;50.120;8.500;2024-01-07T01:12:06;4.97;;;2.50;;
3423;SDS011;72707;50.120;8.500;2024-01-07T01:14:32;4.47;;;2.23;;
3423;SDS011;72707;50.120;8.500;2024-01-07T01:16:58;5.87;;;2.53;;
3423;SDS011;72707;50.120;8.500;2024-01-07T01:19:24;3.00;;;1.70;;
3423;SDS011;72707;50.120;8.500;2024-01-07T01:21:49;4.90;;;2.23;;
3423;SDS011;72707;50.120;8.500;2024-01-07T01:24:15;7.50;;;2.47;;
3423;SDS011;72707;50.120;8.500;2024-01-07T01:26:41;3.23;;;1.63;;
3423;SDS011;72707;50.120;8.500;2024-01-07T01:29:07;1.43;;;1.20;;
3423;SDS011;72707;50.120;8.500;2024-01-07T01:31:33;5.53;;;2.30;;
3423;SDS011;72707;50.120;8.500;2024-01-07T01:33:59;4.00;;;1.40;;
3423;SDS011;72707;50.120;8.500;2024-01-07T01:36:24;4.63;;;1.70;;
3423;SDS011;72707;50.120;8.500;2024-01-07T01:38:51;3.70;;;1.60;;
3423;SDS011;72707;50.120;8.500;2024-01-07T01:41:17;4.00;;;1.90;;
3423;SDS011;72707;50.120;8.500;2024-01-07T01:43:43;4.83;;;1.80;;
3423;SDS011;72707;50.120;8.500;2024-01-07T01:46:09;3.30;;;1.60;;
3423;SDS011;72707;50.120;8.500;2024-01-07T01:48:38;2.77;;;1.33;;
3423;SDS011;72707;50.120;8.500;2024-01-07T01:51:04;1.73;;;1.10;;
3423;SDS011;72707;50.120;8.500;2024-01-07T01:53:30;5.10;;;1.73;;
3423;SDS011;72707;50.120;8.500;2024-01-07T01:55:57;2.40;;;1.00;;
3423;SDS011;72707;50.120;8.500;2024-01-07T01:58:23;4.57;;;1.87;;
3423;SDS011;72707;50.120;8.500;2024-01-07T02:00:49;6.23;;;1.77;;
3423;SDS011;72707;50.120;8.500;2024-01-07T02:03:16;3.70;;;1.57;;
3423;SDS011;72707;50.120;8.500;2024-01-07T02:05:42;4.00;;;1.83;;
3423;SDS011;72707;50.120;8.500;2024-01-07T02:08:07;5.97;;;2.10;;
3423;SDS011;72707;50.120;8.500;2024-01-07T02:10:34;3.53;;;1.90;;
3423;SDS011;72707;50.120;8.500;2024-01-07T02:13:01;3.53;;;1.70;;
3423;SDS011;72707;50.120;8.500;2024-01-07T02:15:30;4.30;;;1.97;;
3423;SDS011;72707;50.120;8.500;2024-01-07T02:17:56;4.20;;;1.80;;
3423;SDS011;72707;50.120;8.500;2024-01-07T02:20:22;3.43;;;1.43;;
3423;SDS011;72707;50.120;8.500;2024-01-07T02:22:48;3.80;;;1.70;;
3423;SDS011;72707;50.120;8.500;2024-01-07T02:25:14;4.27;;;1.90;;
3423;SDS011;72707;50.120;8.500;2024-01-07T02:27:40;4.13;;;1.53;;
3423;SDS011;72707;50.120;8.500;2024-01-07T02:30:06;1.97;;;1.20;;
3423;SDS011;72707;50.120;8.500;2024-01-07T02:32:32;2.67;;;1.30;;
3423;SDS011;72707;50.120;8.500;2024-01-07T02:34:59;4.30;;;1.83;;
3423;SDS011;72707;50.120;8.500;2024-01-07T02:37:25;4.23;;;1.97;;
3423;SDS011;72707;50.120;8.500;2024-01-07T02:39:51;2.07;;;1.57;;
3423;SDS011;72707;50.120;8.500;2024-01-07T02:42:17;4.37;;;1.70;;
3423;SDS011;72707;50.120;8.500;2024-01-07T02:44:43;4.10;;;1.73;;
3423;SDS011;72707;50.120;8.500;2024-01-07T02:47:09;1.30;;;1.20;;
3423;SDS011;72707;50.120;8.500;2024-01-07T02:49:34;1.70;;;1.37;;
3423;SDS011;72707;50.120;8.500;2024-01-07T02:52:00;3.63;;;1.70;;
3423;SDS011;72707;50.120;8.500;2024-01-07T02:54:26;4.20;;;2.53;;
3423;SDS011;72707;50.120;8.500;2024-01-07T02:56:52;1.50;;;1.40;;
3423;SDS011;72707;50.120;8.500;2024-01-07T02:59:18;4.37;;;2.10;;
3423;SDS011;72707;50.120;8.500;2024-01-07T03:01:44;7.70;;;2.70;;
3423;SDS011;72707;50.120;8.500;2024-01-07T03:04:10;2.10;;;1.53;;
3423;SDS011;72707;50.120;8.500;2024-01-07T03:06:37;1.70;;;1.50;;
3423;SDS011;72707;50.120;8.500;2024-01-07T03:09:03;3.37;;;1.60;;
3423;SDS011;72707;50.120;8.500;2024-01-07T03:11:29;5.73;;;2.33;;
3423;SDS011;72707;50.120;8.500;2024-01-07T03:13:55;2.33;;;1.60;;
3423;SDS011;72707;50.120;8.500;2024-01-07T03:16:24;4.37;;;2.07;;
3423;SDS011;72707;50.120;8.500;2024-01-07T03:18:51;4.47;;;2.13;;
3423;SDS011;72707;50.120;8.500;2024-01-07T03:21:17;4.00;;;1.87;;
3423;SDS011;72707;50.120;8.500;2024-01-07T03:23:43;2.83;;;1.70;;
3423;SDS011;72707;50.120;8.500;2024-01-07T03:26:09;4.63;;;2.63;;
3423;SDS011;72707;50.120;8.500;2024-01-07T03:28:35;4.37;;;2.80;;
3423;SDS011;72707;50.120;8.500;2024-01-07T03:31:34;7.77;;;3.07;;
3423;SDS011;72707;50.120;8.500;2024-01-07T03:33:53;2.90;;;1.83;;
3423;SDS011;72707;50.120;8.500;2024-01-07T03:36:19;2.03;;;1.80;;
3423;SDS011;72707;50.120;8.500;2024-01-07T03:38:45;7.77;;;3.07;;
3423;SDS011;72707;50.120;8.500;2024-01-07T03:41:15;2.67;;;2.17;;
3423;SDS011;72707;50.120;8.500;2024-01-07T03:43:43;3.53;;;2.43;;
3423;SDS011;72707;50.120;8.500;2024-01-07T03:46:08;3.63;;;1.90;;
3423;SDS011;72707;50.120;8.500;2024-01-07T03:48:34;4.40;;;2.47;;
3423;SDS011;72707;50.120;8.500;2024-01-07T03:51:00;6.70;;;3.03;;
3423;SDS011;72707;50.120;8.500;2024-01-07T03:53:26;5.57;;;2.97;;
3423;SDS011;72707;50.120;8.500;2024-01-07T03:55:52;8.97;;;2.93;;
3423;SDS011;72707;50.120;8.500;2024-01-07T03:58:18;8.50;;;3.80;;
3423;SDS011;72707;50.120;8.500;2024-01-07T04:00:43;3.73;;;2.60;;
3423;SDS011;72707;50.120;8.500;2024-01-07T04:03:09;5.90;;;2.80;;
3423;SDS011;72707;50.120;8.500;2024-01-07T04:05:35;5.03;;;2.90;;
3423;SDS011;72707;50.120;8.500;2024-01-07T04:08:02;5.73;;;2.93;;
3423;SDS011;72707;50.120;8.500;2024-01-07T04:10:28;7.80;;;3.20;;
3423;SDS011;72707;50.120;8.500;2024-01-07T04:12:54;6.27;;;2.53;;
3423;SDS011;72707;50.120;8.500;2024-01-07T04:15:20;4.07;;;2.57;;
3423;SDS011;72707;50.120;8.500;2024-01-07T04:17:46;4.77;;;3.20;;
3423;SDS011;72707;50.120;8.500;2024-01-07T04:20:14;6.03;;;2.90;;
3423;SDS011;72707;50.120;8.500;2024-01-07T04:22:40;4.83;;;2.57;;
3423;SDS011;72707;50.120;8.500;2024-01-07T04:25:06;6.13;;;3.10;;
3423;SDS011;72707;50.120;8.500;2024-01-07T04:27:35;3.83;;;2.27;;
3423;SDS011;72707;50.120;8.500;2024-01-07T04:30:02;5.27;;;2.90;;
3423;SDS011;72707;50.120;8.500;2024-01-07T04:32:28;5.33;;;2.70;;
3423;SDS011;72707;50.120;8.500;2024-01-07T04:34:54;1.73;;;1.30;;
3423;SDS011;72707;50.120;8.500;2024-01-07T04:37:22;6.90;;;2.73;;
3423;SDS011;72707;50.120;8.500;2024-01-07T04:39:48;6.73;;;2.53;;
3423;SDS011;72707;50.120;8.500;2024-01-07T04:42:13;6.70;;;2.40;;
3423;SDS011;72707;50.120;8.500;2024-01-07T04:44:40;3.50;;;2.30;;
3423;SDS011;72707;50.120;8.500;2024-01-07T04:47:22;7.47;;;2.83;;
3423;SDS011;72707;50.120;8.500;2024-01-07T04:49:48;3.00;;;2.33;;
3423;SDS011;72707;50.120;8.500;2024-01-07T04:52:14;4.97;;;2.67;;
3423;SDS011;72707;50.120;8.500;2024-01-07T04:54:40;9.83;;;3.80;;
3423;SDS011;72707;50.120;8.500;2024-01-07T04:57:06;6.53;;;3.90;;
3423;SDS011;72707;50.120;8.500;2024-01-07T04:59:32;8.77;;;4.17;;
3423;SDS011;72707;50.120;8.500;2024-01-07T05:01:57;10.17;;;4.40;;
3423;SDS011;72707;50.120;8.500;2024-01-07T05:04:23;6.33;;;3.90;;
3423;SDS011;72707;50.120;8.500;2024-01-07T05:06:49;8.50;;;4.53;;
3423;SDS011;72707;50.120;8.500;2024-01-07T05:09:15;12.70;;;5.40;;
3423;SDS011;72707;50.120;8.500;2024-01-07T05:11:41;9.33;;;4.20;;
3423;SDS011;72707;50.120;8.500;2024-01-07T05:14:07;8.77;;;4.87;;
3423;SDS011;72707;50.120;8.500;2024-01-07T05:16:33;11.30;;;4.70;;
3423;SDS011;72707;50.120;8.500;2024-01-07T05:18:58;7.43;;;3.93;;
3423;SDS011;72707;50.120;8.500;2024-01-07T05:21:24;9.30;;;4.47;;
3423;SDS011;72707;50.120;8.500;2024-01-07T05:23:50;11.57;;;5.97;;
3423;SDS011;72707;50.120;8.500;2024-01-07T05:26:16;8.17;;;4.97;;
3423;SDS011;72707;50.120;8.500;2024-01-07T05:28:42;16.50;;;7.17;;
3423;SDS011;72707;50.120;8.500;2024-01-07T05:31:14;12.97;;;7.27;;
3423;SDS011;72707;50.120;8.500;2024-01-07T05:33:41;11.80;;;6.90;;
3423;SDS011;72707;50.120;8.500;2024-01-07T05:36:06;12.53;;;6.77;;
3423;SDS011;72707;50.120;8.500;2024-01-07T05:38:32;14.93;;;7.27;;
3423;SDS011;72707;50.120;8.500;2024-01-07T05:40:58;14.53;;;7.73;;
3423;SDS011;72707;50.120;8.500;2024-01-07T05:43:24;16.47;;;7.90;;
3423;SDS011;72707;50.120;8.500;2024-01-07T05:45:50;12.43;;;7.40;;
3423;SDS011;72707;50.120;8.500;2024-01-07T05:48:16;12.33;;;7.03;;
3423;SDS011;72707;50.120;8.500;2024-01-07T05:50:42;13.13;;;7.00;;
3423;SDS011;72707;50.120;8.500;2024-01-07T05:53:07;14.70;;;7.10;;
3423;SDS011;72707;50.120;8.500;2024-01-07T05:55:33;17.07;;;9.17;;
3423;SDS011;72707;50.120;8.500;2024-01-07T05:57:59;13.13;;;8.00;;
3423;SDS011;72707;50.120;8.500;2024-01-07T06:00:25;12.60;;;6.67;;
3423;SDS011;72707;50.120;8.500;2024-01-07T06:02:51;12.20;;;7.77;;
3423;SDS011;72707;50.120;8.500;2024-01-07T06:05:17;12.73;;;6.47;;
3423;SDS011;72707;50.120;8.500;2024-01-07T06:07:43;8.97;;;5.83;;
3423;SDS011;72707;50.120;8.500;2024-01-07T06:10:09;14.63;;;7.00;;
3423;SDS011;72707;50.120;8.500;2024-01-07T06:12:35;11.43;;;5.73;;
3423;SDS011;72707;50.120;8.500;2024-01-07T06:15:01;10.73;;;5.80;;
3423;SDS011;72707;50.120;8.500;2024-01-07T06:17:26;11.53;;;6.00;;
3423;SDS011;72707;50.120;8.500;2024-01-07T06:19:52;11.83;;;6.07;;
3423;SDS011;72707;50.120;8.500;2024-01-07T06:22:18;10.17;;;6.03;;
3423;SDS011;72707;50.120;8.500;2024-01-07T06:24:44;12.33;;;5.80;;
3423;SDS011;72707;50.120;8.500;2024-01-07T06:27:10;15.17;;;7.27;;
3423;SDS011;72707;50.120;8.500;2024-01-07T06:32:14;108.40;;;15.53;;
3423;SDS011;72707;50.120;8.500;2024-01-07T06:37:16;8.33;;;4.83;;
3423;SDS011;72707;50.120;8.500;2024-01-07T06:39:42;10.60;;;5.43;;
3423;SDS011;72707;50.120;8.500;2024-01-07T06:42:07;8.87;;;4.57;;
3423;SDS011;72707;50.120;8.500;2024-01-07T06:44:33;7.90;;;4.80;;
3423;SDS011;72707;50.120;8.500;2024-01-07T06:46:59;8.47;;;4.40;;
3423;SDS011;72707;50.120;8.500;2024-01-07T06:49:25;10.47;;;5.03;;
3423;SDS011;72707;50.120;8.500;2024-01-07T06:51:51;7.47;;;4.93;;
3423;SDS011;72707;50.120;8.500;2024-01-07T06:54:17;7.70;;;4.90;;
3423;SDS011;72707;50.120;8.500;2024-01-07T06:56:43;9.37;;;5.13;;
3423;SDS011;72707;50.120;8.500;2024-01-07T06:59:09;7.30;;;4.80;;
3423;SDS011;72707;50.120;8.500;2024-01-07T07:01:35;11.13;;;4.93;;
3423;SDS011;72707;50.120;8.500;2024-01-07T07:04:01;8.27;;;4.83;;
3423;SDS011;72707;50.120;8.500;2024-01-07T07:06:27;7.33;;;5.43;;
3423;SDS011;72707;50.120;8.500;2024-01-07T07:08:53;7.93;;;4.73;;
3423;SDS011;72707;50.120;8.500;2024-01-07T07:11:19;8.23;;;5.03;;
3423;SDS011;72707;50.120;8.500;2024-01-07T07:13:45;8.00;;;5.03;;
3423;SDS011;72707;50.120;8.500;2024-01-07T07:16:11;7.43;;;5.27;;
3423;SDS011;72707;50.120;8.500;2024-01-07T07:18:37;8.57;;;6.00;;
3423;SDS011;72707;50.120;8.500;2024-01-07T07:21:03;10.40;;;5.70;;
3423;SDS011;72707;50.120;8.500;2024-01-07T07:23:29;8.03;;;5.20;;
3423;SDS011;72707;50.120;8.500;2024-01-07T07:25:55;9.13;;;5.30;;
3423;SDS011;72707;50.120;8.500;2024-01-07T07:28:21;7.90;;;4.97;;
3423;SDS011;72707;50.120;8.500;2024-01-07T07:30:47;11.93;;;7.10;;
3423;SDS011;72707;50.120;8.500;2024-01-07T07:33:13;6.93;;;5.00;;
3423;SDS011;72707;50.120;8.500;2024-01-07T07:35:39;11.70;;;6.70;;
3423;SDS011;72707;50.120;8.500;2024-01-07T07:38:06;8.50;;;5.90;;
3423;SDS011;72707;50.120;8.500;2024-01-07T07:40:32;16.13;;;6.70;;
3423;SDS011;72707;50.120;8.500;2024-01-07T07:42:57;8.03;;;5.13;;
3423;SDS011;72707;50.120;8.500;2024-01-07T07:45:23;10.73;;;6.20;;
3423;SDS011;72707;50.120;8.500;2024-01-07T07:47:49;12.93;;;6.53;;
3423;SDS011;72707;50.120;8.500;2024-01-07T07:50:15;11.83;;;6.67;;
3423;SDS011;72707;50.120;8.500;2024-01-07T07:52:41;12.73;;;6.93;;
3423;SDS011;72707;50.120;8.500;2024-01-07T07:55:08;12.80;;;8.03;;
3423;SDS011;72707;50.120;8.500;2024-01-07T07:57:34;11.43;;;7.87;;
3423;SDS011;72707;50.120;8.500;2024-01-07T08:00:00;10.67;;;6.33;;
3423;SDS011;72707;50.120;8.500;2024-01-07T08:02:27;10.37;;;6.27;;
3423;SDS011;72707;50.120;8.500;2024-01-07T08:04:53;7.93;;;5.90;;
3423;SDS011;72707;50.120;8.500;2024-01-07T08:07:18;11.87;;;6.70;;
3423;SDS011;72707;50.120;8.500;2024-01-07T08:09:44;10.43;;;6.70;;
3423;SDS011;72707;50.120;8.500;2024-01-07T08:12:09;9.13;;;5.67;;
3423;SDS011;72707;50.120;8.500;2024-01-07T08:14:37;37.97;;;11.70;;
3423;SDS011;72707;50.120;8.500;2024-01-07T08:17:05;13.47;;;6.80;;
3423;SDS011;72707;50.120;8.500;2024-01-07T09:03:29;12.83;;;6.33;;
3423;SDS011;72707;50.120;8.500;2024-01-07T09:05:55;11.37;;;6.47;;
3423;SDS011;72707;50.120;8.500;2024-01-07T09:08:20;19.33;;;7.67;;
3423;SDS011;72707;50.120;8.500;2024-01-07T09:10:46;12.43;;;6.50;;
3423;SDS011;72707;50.120;8.500;2024-01-07T09:13:13;11.67;;;6.57;;
3423;SDS011;72707;50.120;8.500;2024-01-07T09:15:39;11.20;;;6.37;;
3423;SDS011;72707;50.120;8.500;2024-01-07T09:18:05;16.47;;;8.33;;
3423;SDS011;72707;50.120;8.500;2024-01-07T09:20:31;18.70;;;8.20;;
3423;SDS011;72707;50.120;8.500;2024-01-07T09:22:58;11.93;;;5.90;;
3423;SDS011;72707;50.120;8.500;2024-01-07T09:25:24;25.17;;;8.03;;
3423;SDS011;72707;50.120;8.500;2024-01-07T09:27:51;9.83;;;6.67;;
3423;SDS011;72707;50.120;8.500;2024-01-07T09:30:17;16.43;;;7.87;;
3423;SDS011;72707;50.120;8.500;2024-01-07T09:32:43;8.97;;;5.67;;
3423;SDS011;72707;50.120;8.500;2024-01-07T09:35:09;12.57;;;7.03;;
3423;SDS011;72707;50.120;8.500;2024-01-07T09:37:35;14.03;;;6.60;;
3423;SDS011;72707;50.120;8.500;2024-01-07T09:40:01;17.73;;;7.20;;
3423;SDS011;72707;50.120;8.500;2024-01-07T09:42:29;10.57;;;6.03;;
3423;SDS011;72707;50.120;8.500;2024-01-07T09:44:55;8.23;;;5.23;;
3423;SDS011;72707;50.120;8.500;2024-01-07T09:47:21;14.97;;;6.87;;
3423;SDS011;72707;50.120;8.500;2024-01-07T09:49:48;11.97;;;5.77;;
3423;SDS011;72707;50.120;8.500;2024-01-07T09:52:14;8.87;;;5.20;;
3423;SDS011;72707;50.120;8.500;2024-01-07T09:54:42;13.23;;;5.83;;
3423;SDS011;72707;50.120;8.500;2024-01-07T09:57:08;10.50;;;6.03;;
3423;SDS011;72707;50.120;8.500;2024-01-07T09:59:35;10.83;;;6.03;;
3423;SDS011;72707;50.120;8.500;2024-01-07T10:02:01;8.73;;;5.30;;
3423;SDS011;72707;50.120;8.500;2024-01-07T10:04:28;6.27;;;5.17;;
3423;SDS011;72707;50.120;8.500;2024-01-07T10:06:54;13.30;;;7.63;;
3423;SDS011;72707;50.120;8.500;2024-01-07T10:09:21;9.40;;;5.70;;
3423;SDS011;72707;50.120;8.500;2024-01-07T10:11:48;12.27;;;6.33;;
3423;SDS011;72707;50.120;8.500;2024-01-07T10:14:14;8.67;;;5.37;;
3423;SDS011;72707;50.120;8.500;2024-01-07T10:16:41;12.30;;;6.63;;
3423;SDS011;72707;50.120;8.500;2024-01-07T10:19:07;9.97;;;6.23;;
3423;SDS011;72707;50.120;8.500;2024-01-07T10:21:33;7.83;;;5.97;;
3423;SDS011;72707;50.120;8.500;2024-01-07T10:24:11;10.43;;;5.90;;
3423;SDS011;72707;50.120;8.500;2024-01-07T10:26:38;30.43;;;8.27;;
3423;SDS011;72707;50.120;8.500;2024-01-07T10:29:04;8.53;;;6.30;;
3423;SDS011;72707;50.120;8.500;2024-01-07T10:31:31;6.70;;;4.80;;
3423;SDS011;72707;50.120;8.500;2024-01-07T10:33:57;11.20;;;5.57;;
3423;SDS011;72707;50.120;8.500;2024-01-07T10:36:23;8.13;;;5.20;;
3423;SDS011;72707;50.120;8.500;2024-01-07T10:38:50;12.23;;;5.97;;
3423;SDS011;72707;50.120;8.500;2024-01-07T10:41:19;8.27;;;5.60;;
3423;SDS011;72707;50.120;8.500;2024-01-07T10:43:49;14.80;;;6.83;;
3423;SDS011;72707;50.120;8.500;2024-01-07T10:46:15;8.10;;;5.90;;
3423;SDS011;72707;50.120;8.500;2024-01-07T10:51:18;10.40;;;5.33;;
3423;SDS011;72707;50.120;8.500;2024-01-07T10:53:46;8.33;;;5.60;;
3423;SDS011;72707;50.120;8.500;2024-01-07T10:56:19;8.00;;;6.17;;
3423;SDS011;72707;50.120;8.500;2024-01-07T10:58:48;8.60;;;5.50;;
3423;SDS011;72707;50.120;8.500;2024-01-07T11:01:19;9.13;;;6.00;;
3423;SDS011;72707;50.120;8.500;2024-01-07T11:03:47;6.43;;;4.83;;
3423;SDS011;72707;50.120;8.500;2024-01-07T11:06:23;7.17;;;5.40;;
3423;SDS011;72707;50.120;8.500;2024-01-07T11:09:06;14.13;;;6.90;;
3423;SDS011;72707;50.120;8.500;2024-01-07T11:11:46;8.60;;;5.73;;
3423;SDS011;72707;50.120;8.500;2024-01-07T11:17:08;9.17;;;5.33;;
3423;SDS011;72707;50.120;8.500;2024-01-07T11:19:37;7.27;;;5.30;;
3423;SDS011;72707;50.120;8.500;2024-01-07T11:24:54;8.10;;;5.80;;
3423;SDS011;72707;50.120;8.500;2024-01-07T11:27:21;8.13;;;5.20;;
3423;SDS011;72707;50.120;8.500;2024-01-07T11:29:57;7.87;;;5.10;;
3423;SDS011;72707;50.120;8.500;2024-01-07T11:32:28;10.20;;;6.07;;
3423;SDS011;72707;50.120;8.500;2024-01-07T11:34:54;11.33;;;6.40;;
3423;SDS011;72707;50.120;8.500;2024-01-07T11:37:21;11.43;;;6.97;;
3423;SDS011;72707;50.120;8.500;2024-01-07T11:39:48;14.00;;;6.30;;
3423;SDS011;72707;50.120;8.500;2024-01-07T11:42:15;9.47;;;5.83;;
3423;SDS011;72707;50.120;8.500;2024-01-07T11:45:02;10.33;;;5.67;;
3423;SDS011;72707;50.120;8.500;2024-01-07T11:47:27;7.50;;;5.53;;
3423;SDS011;72707;50.120;8.500;2024-01-07T11:49:53;9.27;;;6.60;;
3423;SDS011;72707;50.120;8.500;2024-01-07T11:52:19;20.80;;;8.43;;
3423;SDS011;72707;50.120;8.500;2024-01-07T11:54:46;12.20;;;5.43;;
3423;SDS011;72707;50.120;8.500;2024-01-07T11:57:12;10.23;;;5.20;;
3423;SDS011;72707;50.120;8.500;2024-01-07T11:59:38;9.73;;;5.60;;
3423;SDS011;72707;50.120;8.500;2024-01-07T12:02:05;11.43;;;5.73;;
3423;SDS011;72707;50.120;8.500;2024-01-07T12:04:31;8.57;;;4.93;;
3423;SDS011;72707;50.120;8.500;2024-01-07T12:06:57;9.67;;;5.50;;
3423;SDS011;72707;50.120;8.500;2024-01-07T12:09:23;8.67;;;6.10;;
3423;SDS011;72707;50.120;8.500;2024-01-07T12:11:49;9.37;;;5.43;;
3423;SDS011;72707;50.120;8.500;2024-01-07T12:14:15;6.00;;;4.70;;
3423;SDS011;72707;50.120;8.500;2024-01-07T12:16:41;10.43;;;5.67;;
3423;SDS011;72707;50.120;8.500;2024-01-07T12:19:08;13.80;;;6.17;;
3423;SDS011;72707;50.120;8.500;2024-01-07T12:21:34;13.10;;;5.47;;
3423;SDS011;72707;50.120;8.500;2024-01-07T12:24:00;17.10;;;6.40;;
3423;SDS011;72707;50.120;8.500;2024-01-07T12:26:27;28.93;;;8.63;;
3423;SDS011;72707;50.120;8.500;2024-01-07T12:28:53;10.13;;;4.80;;
3423;SDS011;72707;50.120;8.500;2024-01-07T12:31:20;8.37;;;4.60;;
3423;SDS011;72707;50.120;8.500;2024-01-07T12:33:47;11.23;;;5.73;;
3423;SDS011;72707;50.120;8.500;2024-01-07T12:36:13;14.37;;;6.20;;
3423;SDS011;72707;50.120;8.500;2024-01-07T12:38:40;13.80;;;5.53;;
3423;SDS011;72707;50.120;8.500;2024-01-07T12:41:06;9.07;;;5.03;;
3423;SDS011;72707;50.120;8.500;2024-01-07T12:43:31;9.70;;;4.77;;
3423;SDS011;72707;50.120;8.500;2024-01-07T12:45:57;7.03;;;4.10;;
3423;SDS011;72707;50.120;8.500;2024-01-07T12:48:29;7.33;;;4.33;;
3423;SDS011;72707;50.120;8.500;2024-01-07T12:50:55;10.47;;;5.27;;
3423;SDS011;72707;50.120;8.500;2024-01-07T12:53:21;6.93;;;4.17;;
3423;SDS011;72707;50.120;8.500;2024-01-07T12:55:47;9.47;;;4.27;;
3423;SDS011;72707;50.120;8.500;2024-01-07T12:58:13;12.50;;;5.63;;
3423;SDS011;72707;50.120;8.500;2024-01-07T13:00:39;8.43;;;4.80;;
3423;SDS011;72707;50.120;8.500;2024-01-07T13:03:06;9.67;;;5.00;;
3423;SDS011;72707;50.120;8.500;2024-01-07T13:05:33;12.30;;;5.53;;
3423;SDS011;72707;50.120;8.500;2024-01-07T13:07:59;7.93;;;4.70;;
3423;SDS011;72707;50.120;8.500;2024-01-07T13:10:25;14.90;;;6.63;;
3423;SDS011;72707;50.120;8.500;2024-01-07T13:12:52;11.07;;;6.00;;
3423;SDS011;72707;50.120;8.500;2024-01-07T13:15:18;23.37;;;7.37;;
3423;SDS011;72707;50.120;8.500;2024-01-07T13:17:44;8.53;;;4.83;;
3423;SDS011;72707;50.120;8.500;2024-01-07T13:20:10;10.87;;;5.03;;
3423;SDS011;72707;50.120;8.500;2024-01-07T13:22:37;8.23;;;4.83;;
3423;SDS011;72707;50.120;8.500;2024-01-07T13:25:03;10.57;;;5.43;;
3423;SDS011;72707;50.120;8.500;2024-01-07T13:27:29;9.87;;;4.33;;
3423;SDS011;72707;50.120;8.500;2024-01-07T13:29:55;11.70;;;5.17;;
3423;SDS011;72707;50.120;8.500;2024-01-07T13:32:21;12.20;;;5.37;;
3423;SDS011;72707;50.120;8.500;2024-01-07T13:34:47;9.50;;;5.33;;
3423;SDS011;72707;50.120;8.500;2024-01-07T13:37:13;9.97;;;5.43;;
3423;SDS011;72707;50.120;8.500;2024-01-07T13:39:39;17.37;;;6.43;;
3423;SDS011;72707;50.120;8.500;2024-01-07T13:42:05;14.10;;;6.20;;
3423;SDS011;72707;50.120;8.500;2024-01-07T13:47:07;15.10;;;5.93;;
3423;SDS011;72707;50.120;8.500;2024-01-07T13:49:33;14.13;;;6.10;;
3423;SDS011;72707;50.120;8.500;2024-01-07T13:51:59;8.10;;;4.63;;
3423;SDS011;72707;50.120;8.500;2024-01-07T13:54:24;9.57;;;5.70;;
3423;SDS011;72707;50.120;8.500;2024-01-07T13:56:50;8.03;;;4.67;;
3423;SDS011;72707;50.120;8.500;2024-01-07T13:59:16;13.47;;;5.37;;
3423;SDS011;72707;50.120;8.500;2024-01-07T14:01:43;8.20;;;5.13;;
3423;SDS011;72707;50.120;8.500;2024-01-07T14:04:08;9.77;;;5.23;;
3423;SDS011;72707;50.120;8.500;2024-01-07T14:06:34;9.17;;;5.53;;
3423;SDS011;72707;50.120;8.500;2024-01-07T14:09:00;11.27;;;5.43;;
3423;SDS011;72707;50.120;8.500;2024-01-07T14:11:27;9.50;;;4.73;;
3423;SDS011;72707;50.120;8.500;2024-01-07T14:13:53;7.87;;;5.10;;
3423;SDS011;72707;50.120;8.500;2024-01-07T14:16:19;11.13;;;4.97;;
3423;SDS011;72707;50.120;8.500;2024-01-07T14:18:45;5.53;;;3.80;;
3423;SDS011;72707;50.120;8.500;2024-01-07T14:21:11;12.73;;;4.70;;
3423;SDS011;72707;50.120;8.500;2024-01-07T14:23:37;14.10;;;5.90;;
3423;SDS011;72707;50.120;8.500;2024-01-07T14:26:03;9.13;;;4.83;;
3423;SDS011;72707;50.120;8.500;2024-01-07T14:28:29;4.00;;;3.27;;
3423;SDS011;72707;50.120;8.500;2024-01-07T14:30:55;11.77;;;5.50;;
3423;SDS011;72707;50.120;8.500;2024-01-07T14:33:20;5.47;;;3.87;;
3423;SDS011;72707;50.120;8.500;2024-01-07T14:35:46;8.10;;;3.57;;
3423;SDS011;72707;50.120;8.500;2024-01-07T14:38:12;7.40;;;3.57;;
3423;SDS011;72707;50.120;8.500;2024-01-07T14:40:38;8.13;;;3.43;;
3423;SDS011;72707;50.120;8.500;2024-01-07T14:43:06;14.60;;;5.13;;
3423;SDS011;72707;50.120;8.500;2024-01-07T14:45:32;4.23;;;3.57;;
3423;SDS011;72707;50.120;8.500;2024-01-07T14:47:58;5.03;;;3.27;;
3423;SDS011;72707;50.120;8.500;2024-01-07T14:50:23;8.07;;;3.60;;
3423;SDS011;72707;50.120;8.500;2024-01-07T14:52:49;7.10;;;3.10;;
3423;SDS011;72707;50.120;8.500;2024-01-07T14:55:15;8.13;;;3.67;;
3423;SDS011;72707;50.120;8.500;2024-01-07T14:57:41;5.63;;;3.07;;
3423;SDS011;72707;50.120;8.500;2024-01-07T15:00:07;9.40;;;3.40;;
3423;SDS011;72707;50.120;8.500;2024-01-07T15:02:34;17.13;;;4.90;;
3423;SDS011;72707;50.120;8.500;2024-01-07T15:05:00;4.43;;;2.70;;
3423;SDS011;72707;50.120;8.500;2024-01-07T15:07:26;6.43;;;3.10;;
3423;SDS011;72707;50.120;8.500;2024-01-07T15:09:52;7.20;;;3.47;;
3423;SDS011;72707;50.120;8.500;2024-01-07T15:12:18;7.67;;;3.30;;
3423;SDS011;72707;50.120;8.500;2024-01-07T15:14:44;8.10;;;3.23;;
3423;SDS011;72707;50.120;8.500;2024-01-07T15:17:10;2.77;;;2.27;;
3423;SDS011;72707;50.120;8.500;2024-01-07T15:19:36;21.60;;;5.83;;
3423;SDS011;72707;50.120;8.500;2024-01-07T15:22:02;10.73;;;3.63;;
3423;SDS011;72707;50.120;8.500;2024-01-07T15:24:28;8.17;;;3.10;;
3423;SDS011;72707;50.120;8.500;2024-01-07T15:26:54;9.77;;;3.77;;
3423;SDS011;72707;50.120;8.500;2024-01-07T15:29:20;17.50;;;5.07;;
3423;SDS011;72707;50.120;8.500;2024-01-07T15:31:46;7.33;;;3.40;;
3423;SDS011;72707;50.120;8.500;2024-01-07T15:34:12;7.47;;;2.73;;
3423;SDS011;72707;50.120;8.500;2024-01-07T15:36:38;4.07;;;2.27;;
3423;SDS011;72707;50.120;8.500;2024-01-07T15:39:05;6.70;;;3.00;;
3423;SDS011;72707;50.120;8.500;2024-01-07T15:41:31;3.20;;;2.03;;
3423;SDS011;72707;50.120;8.500;2024-01-07T15:43:58;4.50;;;2.70;;
3423;SDS011;72707;50.120;8.500;2024-01-07T15:46:24;6.03;;;2.63;;
3423;SDS011;72707;50.120;8.500;2024-01-07T15:48:49;6.23;;;3.03;;
3423;SDS011;72707;50.120;8.500;2024-01-07T15:51:16;6.13;;;2.40;;
3423;SDS011;72707;50.120;8.500;2024-01-07T15:56:10;11.17;;;3.50;;